createdAt,value
2022-10-02T00:01:12.142Z,8.10
2022-10-02T00:06:22.618Z,8.48
2022-10-02T00:11:33.046Z,8.90
2022-10-02T00:16:41.180Z,7.78
2022-10-02T00:22:03.000Z,10.40
2022-10-02T00:27:28.160Z,8.15
2022-10-02T00:32:42.000Z,9.82
2022-10-02T00:37:53.250Z,10.27
2022-10-02T00:43:15.946Z,9.48
2022-10-02T00:54:32.200Z,9.93
2022-10-02T00:59:54.560Z,11.18
2022-10-02T01:04:59.925Z,13.30
2022-10-02T01:10:05.503Z,10.15
2022-10-02T01:15:13.725Z,16.88
2022-10-02T01:20:20.723Z,16.27
2022-10-02T01:25:26.090Z,12.00
2022-10-02T01:30:31.350Z,9.20
2022-10-02T01:35:37.851Z,7.50
2022-10-02T01:40:43.094Z,9.05
2022-10-02T01:45:58.646Z,11.75
2022-10-02T01:51:19.235Z,7.63
2022-10-02T01:56:31.725Z,11.57
2022-10-02T02:01:48.099Z,9.80
2022-10-02T02:06:58.619Z,9.55
2022-10-02T02:12:14.197Z,10.50
2022-10-02T02:17:25.097Z,10.75
2022-10-02T02:22:31.851Z,10.57
2022-10-02T02:27:42.168Z,7.68
2022-10-02T02:32:49.352Z,11.00
2022-10-02T02:37:56.926Z,8.68
2022-10-02T02:43:07.171Z,8.85
2022-10-02T02:48:20.835Z,6.18
2022-10-02T02:53:28.857Z,10.07
2022-10-02T02:58:38.599Z,11.38
2022-10-02T03:03:42.406Z,7.43
2022-10-02T03:08:48.418Z,9.48
2022-10-02T03:14:06.396Z,7.70
2022-10-02T03:19:25.073Z,7.82
2022-10-02T03:24:36.935Z,11.27
2022-10-02T03:29:50.494Z,8.05
2022-10-02T03:34:54.424Z,8.73
2022-10-02T03:40:01.027Z,11.30
2022-10-02T03:45:07.445Z,8.68
2022-10-02T03:50:19.848Z,10.30
2022-10-02T03:55:31.502Z,9.75
2022-10-02T04:00:39.944Z,17.00
2022-10-02T04:05:48.574Z,10.00
2022-10-02T04:11:01.139Z,7.57
2022-10-02T04:16:11.260Z,14.35
2022-10-02T04:21:22.467Z,9.45
2022-10-02T04:26:29.867Z,10.82
2022-10-02T04:31:35.132Z,9.13
2022-10-02T04:36:46.656Z,7.70
2022-10-02T04:42:09.025Z,8.75
2022-10-02T04:47:38.153Z,8.82
2022-10-02T04:52:55.985Z,10.68
2022-10-02T04:58:34.856Z,8.38
2022-10-02T05:03:58.752Z,7.15
2022-10-02T05:09:12.860Z,11.65
2022-10-02T05:14:31.806Z,13.20
2022-10-02T05:19:51.583Z,13.18
2022-10-02T05:25:15.684Z,10.60
2022-10-02T05:30:20.330Z,10.30
2022-10-02T05:35:46.018Z,10.70
2022-10-02T05:41:01.800Z,11.27
2022-10-02T05:46:15.390Z,10.25
2022-10-02T05:51:32.387Z,10.65
2022-10-02T05:56:43.389Z,10.77
2022-10-02T06:01:50.181Z,9.23
2022-10-02T06:06:58.203Z,10.40
2022-10-02T06:12:05.292Z,12.55
2022-10-02T06:17:12.421Z,9.50
2022-10-02T06:22:21.584Z,9.93
2022-10-02T06:27:33.557Z,11.57
2022-10-02T06:32:42.894Z,11.90
2022-10-02T06:38:00.845Z,7.68
2022-10-02T06:43:11.839Z,10.82
2022-10-02T06:48:25.802Z,13.07
2022-10-02T06:53:57.031Z,13.23
2022-10-02T06:59:11.729Z,11.05
2022-10-02T07:04:30.497Z,9.35
2022-10-02T07:09:59.627Z,10.05
2022-10-02T07:15:22.754Z,8.88
2022-10-02T07:20:34.427Z,11.27
2022-10-02T07:25:53.462Z,9.75
2022-10-02T07:31:02.460Z,8.02
2022-10-02T07:36:12.718Z,9.23
2022-10-02T07:41:34.260Z,9.85
2022-10-02T07:46:47.447Z,9.80
2022-10-02T07:51:57.574Z,9.73
2022-10-02T07:57:12.612Z,10.30
2022-10-02T08:02:24.722Z,10.67
2022-10-02T08:07:30.633Z,11.00
2022-10-02T08:12:40.947Z,11.48
2022-10-02T08:17:50.437Z,9.88
2022-10-02T08:23:02.470Z,9.38
2022-10-02T08:28:16.989Z,8.63
2022-10-02T08:33:22.077Z,10.63
2022-10-02T08:38:37.154Z,11.60
2022-10-02T08:44:10.458Z,11.93
2022-10-02T08:49:58.112Z,7.57
2022-10-02T08:55:25.924Z,9.60
2022-10-02T09:00:46.124Z,9.48
2022-10-02T09:06:17.135Z,8.43
2022-10-02T09:12:10.285Z,8.65
2022-10-02T09:17:43.814Z,13.73
2022-10-02T09:23:07.902Z,8.15
2022-10-02T09:28:44.587Z,12.07
2022-10-02T09:34:16.998Z,11.65
2022-10-02T09:39:53.111Z,10.50
2022-10-02T09:45:28.410Z,9.90
2022-10-02T09:51:22.538Z,11.45
2022-10-02T09:56:56.342Z,9.38
2022-10-02T10:02:34.903Z,8.98
2022-10-02T10:08:01.537Z,12.18
2022-10-02T10:13:52.350Z,8.27
2022-10-02T10:19:22.146Z,10.63
2022-10-02T10:24:53.144Z,9.95
2022-10-02T10:30:17.815Z,10.32
2022-10-02T10:35:45.057Z,10.25
2022-10-02T10:41:05.638Z,9.52
2022-10-02T10:46:33.465Z,9.10
2022-10-02T10:51:42.166Z,11.82
2022-10-02T10:56:51.023Z,8.25
2022-10-02T11:02:13.129Z,11.02
2022-10-02T11:07:40.706Z,9.57
2022-10-02T11:13:19.093Z,9.40
2022-10-02T11:18:48.455Z,11.20
2022-10-02T11:24:23.606Z,7.97
2022-10-02T11:29:52.516Z,13.68
2022-10-02T11:35:30.975Z,11.35
2022-10-02T11:40:47.954Z,9.10
2022-10-02T11:46:15.039Z,10.48
2022-10-02T11:52:05.283Z,10.30
2022-10-02T11:57:31.106Z,8.27
2022-10-02T12:02:39.622Z,10.63
2022-10-02T12:07:54.347Z,8.63
2022-10-02T12:13:33.321Z,9.23
2022-10-02T12:18:58.481Z,10.20
2022-10-02T12:24:12.888Z,10.52
2022-10-02T12:29:23.010Z,8.55
2022-10-02T12:34:40.965Z,10.43
2022-10-02T12:39:54.568Z,10.77
2022-10-02T12:45:24.051Z,9.23
2022-10-02T12:50:50.226Z,9.10
2022-10-02T12:56:43.976Z,12.15
2022-10-02T13:02:59.938Z,11.27
2022-10-02T13:08:29.910Z,10.48
2022-10-02T13:13:57.668Z,11.50
2022-10-02T13:19:14.705Z,10.07
2022-10-02T13:24:33.972Z,13.38
2022-10-02T13:29:47.854Z,12.10
2022-10-02T13:35:16.320Z,12.60
2022-10-02T13:40:28.657Z,12.18
2022-10-02T13:45:39.019Z,11.23
2022-10-02T13:50:53.438Z,10.00
2022-10-02T13:56:05.131Z,10.68
2022-10-02T14:01:24.007Z,10.02
2022-10-02T14:06:33.969Z,11.32
2022-10-02T14:11:54.611Z,8.85
2022-10-02T14:17:08.032Z,10.73
2022-10-02T14:22:30.160Z,13.93
2022-10-02T14:28:16.354Z,8.23
2022-10-02T14:33:32.091Z,9.73
2022-10-02T14:38:49.018Z,10.23
2022-10-02T14:44:13.976Z,10.13
2022-10-02T14:49:41.250Z,12.43
2022-10-02T14:54:59.893Z,9.52
2022-10-02T15:00:42.568Z,10.35
2022-10-02T15:06:10.798Z,8.98
2022-10-02T15:11:25.289Z,11.68
2022-10-02T15:16:43.582Z,7.40
2022-10-02T15:21:58.960Z,10.38
2022-10-02T15:27:18.668Z,11.23
2022-10-02T15:32:56.446Z,8.18
2022-10-02T15:38:21.490Z,10.85
2022-10-02T15:43:42.533Z,10.38
2022-10-02T15:49:00.892Z,11.18
2022-10-02T15:54:22.843Z,8.75
2022-10-02T15:59:40.080Z,8.27
2022-10-02T16:04:59.380Z,13.80
2022-10-02T16:10:18.730Z,9.70
2022-10-02T16:15:27.306Z,8.18
2022-10-02T16:20:52.279Z,10.20
2022-10-02T16:26:14.630Z,10.27
2022-10-02T16:31:42.282Z,9.57
2022-10-02T16:36:52.290Z,10.07
2022-10-02T16:42:13.296Z,10.02
2022-10-02T16:47:27.216Z,9.13
2022-10-02T16:52:38.591Z,8.27
2022-10-02T16:58:12.831Z,7.32
2022-10-02T17:03:26.032Z,5.97
2022-10-02T17:08:37.500Z,9.20
2022-10-02T17:13:58.210Z,9.77
2022-10-02T17:19:14.369Z,9.57
2022-10-02T17:24:44.447Z,9.93
2022-10-02T17:30:15.839Z,6.15
2022-10-02T17:35:37.427Z,9.45
2022-10-02T17:40:51.051Z,7.78
2022-10-02T17:46:06.203Z,8.75
2022-10-02T17:51:51.230Z,8.10
2022-10-02T17:57:16.096Z,8.57
2022-10-02T18:02:37.365Z,6.50
2022-10-02T18:07:57.611Z,8.10
2022-10-02T18:13:30.447Z,7.18
2022-10-02T18:18:40.872Z,5.93
2022-10-02T18:24:02.600Z,4.97
2022-10-02T18:29:36.002Z,6.80
2022-10-02T18:35:09.731Z,6.63
2022-10-02T18:40:24.459Z,8.25
2022-10-02T18:45:47.049Z,5.60
2022-10-02T18:51:05.439Z,6.97
2022-10-02T18:56:09.780Z,5.65
2022-10-02T19:01:43.637Z,5.80
2022-10-02T19:06:52.882Z,5.28
2022-10-02T19:11:58.104Z,7.28
2022-10-02T19:22:19.711Z,6.28
2022-10-02T19:27:30.057Z,5.35
2022-10-02T19:32:37.048Z,6.32
2022-10-02T19:37:44.646Z,4.57
2022-10-02T19:42:50.801Z,6.30
2022-10-02T19:47:58.901Z,4.95
2022-10-02T19:53:07.567Z,6.10
2022-10-02T19:58:19.345Z,6.82
2022-10-02T20:03:25.077Z,5.55
2022-10-02T20:08:34.019Z,5.00
2022-10-02T20:13:44.145Z,8.00
2022-10-02T20:18:48.354Z,5.28
2022-10-02T20:23:57.211Z,5.30
2022-10-02T20:29:03.507Z,5.68
2022-10-02T20:34:20.923Z,5.60
2022-10-02T20:39:30.216Z,4.53
2022-10-02T20:44:35.690Z,6.00
2022-10-02T20:50:10.902Z,5.07
2022-10-02T20:55:24.735Z,8.75
2022-10-02T21:00:28.930Z,5.90
2022-10-02T21:06:09.497Z,5.57
2022-10-02T21:11:29.012Z,6.53
2022-10-02T21:17:07.474Z,3.42
2022-10-02T21:22:37.746Z,3.53
2022-10-02T21:28:28.656Z,4.68
2022-10-02T21:33:40.079Z,4.93
2022-10-02T21:39:19.745Z,3.28
2022-10-02T21:45:22.730Z,5.80
2022-10-02T21:51:07.931Z,4.80
2022-10-02T21:56:52.488Z,4.03
2022-10-02T22:02:28.489Z,7.18
2022-10-02T22:07:38.065Z,6.55
2022-10-02T22:12:58.266Z,5.80
2022-10-02T22:18:16.690Z,3.50
2022-10-02T22:23:42.243Z,3.40
2022-10-02T22:28:49.391Z,4.72
2022-10-02T22:34:06.305Z,4.93
2022-10-02T22:39:15.328Z,5.05
2022-10-02T22:44:24.387Z,4.70
2022-10-02T22:49:38.247Z,4.45
2022-10-02T22:54:47.419Z,4.20
2022-10-02T22:59:58.334Z,5.40
2022-10-02T23:05:10.543Z,3.75
2022-10-02T23:10:22.723Z,4.93
2022-10-02T23:15:38.085Z,5.47
2022-10-02T23:20:51.089Z,4.28
2022-10-02T23:26:01.204Z,4.38
2022-10-02T23:31:18.209Z,6.47
2022-10-02T23:36:29.962Z,4.00
2022-10-02T23:41:35.656Z,4.70
2022-10-02T23:47:02.583Z,5.70
2022-10-02T23:52:27.085Z,6.57
2022-10-02T23:57:57.071Z,4.00
